Time;durP1;ratioP1;P1;durP2;ratioP2;P2;SDS_P1;SDS_P2;PMS_P1;PMS_P2;Temp;Humidity;BMP_temperature;BMP_pressure;BME280_temperature;BME280_humidity;BME280_pressure;Samples;Min_cycle;Max_cycle;Signal;HPM_P1;HPM_P2
2022/01/19 00:01:27;;;;;;;9.70;4.70;;;13.20;48.30;;;;;;215719;1293;24468;-57
2022/01/19 00:06:31;;;;;;;8.30;4.70;;;13.20;48.30;;;;;;215596;1293;22593;-55
2022/01/19 00:11:34;;;;;;;9.10;4.40;;;13.20;48.10;;;;;;215660;1293;24965;-56
2022/01/19 00:16:38;;;;;;;8.80;4.40;;;13.20;48.30;;;;;;215695;1293;24269;-56
2022/01/19 00:21:42;;;;;;;8.70;4.40;;;13.20;48.20;;;;;;215397;1293;23174;-55
2022/01/19 00:26:47;;;;;;;8.80;3.90;;;13.20;48.30;;;;;;215551;1293;22570;-55
2022/01/19 00:31:50;;;;;;;7.60;4.00;;;13.20;48.70;;;;;;215703;1293;24360;-56
2022/01/19 00:36:54;;;;;;;7.80;4.00;;;13.10;48.40;;;;;;215719;1293;25300;-59
2022/01/19 00:41:59;;;;;;;9.30;4.60;;;13.10;48.30;;;;;;215850;1293;22585;-57
2022/01/19 00:47:03;;;;;;;7.30;4.30;;;13.10;48.40;;;;;;215681;1293;24341;-57
2022/01/19 00:52:06;;;;;;;9.10;4.80;;;13.10;48.50;;;;;;215719;1293;24773;-58
2022/01/19 00:57:10;;;;;;;8.20;4.20;;;13.10;48.40;;;;;;215680;1293;22593;-54
2022/01/19 01:02:13;;;;;;;8.60;4.00;;;13.10;48.30;;;;;;215488;1292;22589;-57
2022/01/19 01:07:18;;;;;;;10.40;4.90;;;13.10;48.40;;;;;;215687;1292;22592;-55
2022/01/19 01:12:30;;;;;;;8.40;4.50;;;13.10;48.40;;;;;;215711;1293;24437;-53
2022/01/19 01:23:04;;;;;;;7.20;3.80;;;13.20;48.20;;;;;;215637;1293;22741;-57
2022/01/19 01:28:11;;;;;;;8.10;4.10;;;13.10;48.20;;;;;;215652;1293;22730;-56
2022/01/19 01:33:17;;;;;;;9.90;4.40;;;13.10;48.60;;;;;;215603;1293;22595;-56
2022/01/19 01:38:23;;;;;;;8.80;4.40;;;13.10;48.20;;;;;;215771;1293;24558;-56
2022/01/19 01:43:50;;;;;;;8.70;4.10;;;13.10;48.10;;;;;;215931;1292;24559;-55
2022/01/19 01:48:56;;;;;;;7.60;4.10;;;13.20;48.50;;;;;;215549;1293;25262;-57
2022/01/19 01:54:01;;;;;;;8.80;4.40;;;13.20;48.10;;;;;;215650;1293;22755;-56
2022/01/19 01:59:09;;;;;;;7.20;3.80;;;13.20;48.10;;;;;;215720;1293;25458;-56
2022/01/19 02:04:52;;;;;;;8.40;3.60;;;13.10;47.50;;;;;;215806;1293;24268;-54
2022/01/19 02:10:05;;;;;;;9.40;4.30;;;13.10;48.20;;;;;;215751;1293;25536;-57
2022/01/19 02:26:13;;;;;;;7.20;3.80;;;13.20;48.20;;;;;;215507;1293;22576;-54
2022/01/19 02:42:24;;;;;;;8.10;3.70;;;13.10;48.50;;;;;;215746;1293;24255;-57
2022/01/19 02:52:31;;;;;;;7.20;3.70;;;13.10;48.20;;;;;;215576;1296;24321;-58
2022/01/19 02:57:36;;;;;;;6.60;3.60;;;13.10;48.40;;;;;;215412;1296;22693;-56
2022/01/19 03:13:26;;;;;;;7.00;3.70;;;13.00;48.30;;;;;;215747;1293;22602;-54
2022/01/19 03:18:32;;;;;;;7.30;3.80;;;13.10;48.20;;;;;;215679;1293;24286;-57
2022/01/19 03:23:35;;;;;;;8.20;3.90;;;13.10;48.30;;;;;;215752;1293;22572;-55
2022/01/19 03:28:39;;;;;;;6.60;3.50;;;13.10;48.20;;;;;;216088;1293;25436;-57
2022/01/19 03:33:44;;;;;;;9.00;3.80;;;13.10;48.40;;;;;;215737;1293;22596;-57
2022/01/19 03:38:47;;;;;;;7.10;3.90;;;13.10;48.10;;;;;;215784;1293;26551;-55
2022/01/19 03:43:52;;;;;;;6.80;2.90;;;13.10;47.80;;;;;;215635;1292;22592;-54
2022/01/19 03:48:58;;;;;;;5.80;3.40;;;13.00;48.30;;;;;;215713;1293;22610;-56
2022/01/19 03:54:02;;;;;;;6.40;3.30;;;13.00;48.30;;;;;;215634;1293;22572;-58
2022/01/19 03:59:06;;;;;;;6.50;3.50;;;13.00;48.30;;;;;;215744;1293;25634;-56
2022/01/19 04:09:13;;;;;;;5.00;2.80;;;13.00;48.30;;;;;;215705;1293;23116;-58
2022/01/19 04:14:26;;;;;;;6.70;3.40;;;13.00;48.70;;;;;;215466;1293;22579;-53
2022/01/19 04:24:50;;;;;;;6.80;3.50;;;13.00;48.40;;;;;;215679;1293;22582;-58
2022/01/19 04:35:06;;;;;;;6.00;3.30;;;13.00;48.20;;;;;;215566;1293;22585;-56
2022/01/19 05:02:04;;;;;;;12.50;5.30;;;13.00;48.40;;;;;;215654;1292;22592;-57
2022/01/19 05:07:19;;;;;;;13.50;6.20;;;13.00;48.30;;;;;;215747;1293;22711;-55
2022/01/19 05:17:50;;;;;;;11.70;5.10;;;13.00;48.30;;;;;;215587;1293;22675;-57
2022/01/19 05:23:02;;;;;;;9.90;4.90;;;13.00;48.30;;;;;;215549;1292;22694;-56
2022/01/19 05:28:05;;;;;;;10.50;5.30;;;13.00;48.30;;;;;;215490;1293;25375;-56
2022/01/19 05:33:09;;;;;;;10.90;5.40;;;13.00;48.60;;;;;;215688;1292;22572;-56
2022/01/19 05:38:13;;;;;;;12.40;5.20;;;13.00;48.30;;;;;;215670;1293;22569;-57
2022/01/19 05:43:34;;;;;;;9.00;4.20;;;13.00;48.20;;;;;;215612;1293;24330;-59
2022/01/19 05:48:38;;;;;;;10.30;4.30;;;13.00;48.20;;;;;;215607;1293;22601;-56
2022/01/19 05:53:42;;;;;;;9.40;4.30;;;13.00;48.20;;;;;;215328;1293;311305;-56
2022/01/19 05:58:47;;;;;;;9.00;4.60;;;13.00;48.30;;;;;;216012;1293;23200;-55
2022/01/19 06:03:52;;;;;;;8.30;4.00;;;13.00;48.20;;;;;;215976;1293;22602;-56
2022/01/19 06:10:01;;;;;;;8.60;4.00;;;13.00;48.30;;;;;;215825;1293;22584;-56
2022/01/19 06:14:46;;;;;;;9.00;4.30;;;12.90;48.40;;;;;;215541;1293;22595;-57
2022/01/19 06:19:51;;;;;;;7.20;4.10;;;12.90;48.40;;;;;;215692;1293;25273;-57
2022/01/19 06:24:56;;;;;;;7.40;4.00;;;12.90;48.40;;;;;;215572;1293;22636;-54
2022/01/19 06:30:03;;;;;;;8.70;4.20;;;12.90;48.60;;;;;;215796;1293;25492;-55
2022/01/19 06:35:08;;;;;;;9.20;4.40;;;12.90;48.30;;;;;;215480;1293;25435;-57
2022/01/19 06:40:25;;;;;;;9.50;4.80;;;12.90;48.20;;;;;;215609;1293;22579;-56
2022/01/19 06:45:29;;;;;;;9.00;4.50;;;12.90;48.20;;;;;;215757;1293;22583;-56
2022/01/19 06:50:33;;;;;;;8.00;3.80;;;12.90;48.20;;;;;;215825;1293;22568;-58
2022/01/19 06:55:37;;;;;;;8.00;4.20;;;12.90;48.30;;;;;;215572;1293;23068;-58
2022/01/19 07:00:41;;;;;;;6.50;3.80;;;12.90;48.30;;;;;;215702;1293;22635;-57
2022/01/19 07:06:05;;;;;;;9.60;3.90;;;12.90;48.30;;;;;;215341;1293;22591;-57
2022/01/19 07:11:24;;;;;;;7.70;3.50;;;12.90;48.40;;;;;;215548;1293;22908;-54
2022/01/19 07:16:27;;;;;;;10.10;4.30;;;12.90;48.30;;;;;;215923;1293;25245;-58
2022/01/19 07:21:31;;;;;;;9.10;4.60;;;12.90;48.20;;;;;;215643;1293;22675;-56
2022/01/19 07:26:35;;;;;;;6.50;3.70;;;12.90;48.30;;;;;;215655;1293;22569;-58
2022/01/19 07:31:41;;;;;;;7.10;3.90;;;12.90;48.30;;;;;;215636;1293;23134;-57
2022/01/19 07:36:46;;;;;;;8.80;4.30;;;12.90;48.70;;;;;;215679;1293;24374;-58
2022/01/19 07:41:50;;;;;;;8.60;3.90;;;12.90;48.30;;;;;;215621;1293;22636;-56
2022/01/19 07:47:14;;;;;;;7.50;4.20;;;12.90;48.30;;;;;;215484;1293;22574;-57
2022/01/19 07:52:37;;;;;;;7.80;3.80;;;12.90;48.20;;;;;;215618;1293;22595;-57
2022/01/19 07:58:10;;;;;;;10.10;4.70;;;13.00;48.30;;;;;;215571;1293;24346;-54
2022/01/19 08:03:23;;;;;;;8.20;3.90;;;12.90;48.20;;;;;;215735;1293;22564;-57
2022/01/19 08:08:40;;;;;;;8.00;4.10;;;13.00;48.20;;;;;;215566;1293;23246;-55
2022/01/19 08:13:47;;;;;;;8.80;3.80;;;12.90;48.20;;;;;;215591;1296;24374;-56
2022/01/19 08:18:52;;;;;;;8.20;4.50;;;12.90;48.30;;;;;;215287;1293;22652;-54
2022/01/19 08:23:56;;;;;;;8.90;3.80;;;12.90;48.60;;;;;;215708;1293;22572;-54
2022/01/19 08:29:05;;;;;;;8.30;3.90;;;12.90;48.40;;;;;;215896;1293;24637;-57
2022/01/19 08:34:16;;;;;;;7.30;3.40;;;12.90;48.30;;;;;;215624;1293;22609;-55
2022/01/19 08:39:55;;;;;;;8.10;4.10;;;12.90;48.30;;;;;;215078;1293;22653;-53
2022/01/19 08:45:11;;;;;;;7.50;3.80;;;13.00;48.50;;;;;;215572;1293;22599;-56
2022/01/19 08:50:16;;;;;;;7.90;3.90;;;13.00;48.10;;;;;;215766;1293;22795;-58
2022/01/19 08:55:55;;;;;;;9.30;4.70;;;13.00;48.20;;;;;;215540;1293;24297;-57
2022/01/19 09:00:59;;;;;;;9.00;4.40;;;13.00;48.20;;;;;;215603;1293;22579;-57
2022/01/19 09:06:04;;;;;;;7.60;3.70;;;13.00;48.20;;;;;;215607;1293;25404;-56
2022/01/19 09:11:08;;;;;;;8.90;4.50;;;13.00;47.90;;;;;;215612;1292;25591;-56
2022/01/19 09:16:12;;;;;;;8.50;4.30;;;13.00;48.20;;;;;;215845;1293;22581;-58
2022/01/19 09:21:16;;;;;;;7.30;4.10;;;13.00;48.20;;;;;;215577;1293;22595;-58
2022/01/19 09:26:20;;;;;;;7.20;3.40;;;13.00;48.20;;;;;;215562;1293;25312;-56
2022/01/19 09:31:24;;;;;;;7.50;4.10;;;13.00;48.30;;;;;;215759;1293;24404;-56
2022/01/19 09:36:32;;;;;;;6.70;3.90;;;13.10;48.20;;;;;;215594;1293;22576;-56
2022/01/19 09:41:41;;;;;;;6.80;3.70;;;13.10;48.10;;;;;;215766;1293;23749;-56
2022/01/19 09:46:48;;;;;;;7.00;3.40;;;13.20;48.00;;;;;;215762;1293;25420;-54
2022/01/19 09:51:54;;;;;;;6.80;3.60;;;13.20;48.00;;;;;;215802;1293;25289;-55
2022/01/19 09:56:59;;;;;;;7.30;3.70;;;13.30;48.10;;;;;;215821;1293;24350;-57
2022/01/19 10:02:09;;;;;;;9.20;3.20;;;13.30;48.00;;;;;;215803;1293;24372;-56
2022/01/19 10:07:22;;;;;;;7.00;3.70;;;13.40;48.00;;;;;;215530;1292;22607;-57
2022/01/19 10:18:33;;;;;;;6.10;3.70;;;13.50;48.00;;;;;;215664;1293;25389;-53
2022/01/19 10:23:46;;;;;;;6.80;3.80;;;13.60;48.00;;;;;;215738;1293;25299;-57
2022/01/19 10:29:10;;;;;;;7.30;3.80;;;13.70;47.50;;;;;;215238;1292;23202;-58
2022/01/19 10:34:22;;;;;;;9.20;3.90;;;13.70;47.50;;;;;;215923;1293;22605;-57
2022/01/19 10:39:54;;;;;;;6.20;3.60;;;13.80;47.50;;;;;;215745;1293;24280;-59
2022/01/19 10:45:06;;;;;;;5.70;3.30;;;13.90;47.40;;;;;;215632;1293;22643;-57
2022/01/19 10:50:34;;;;;;;6.10;3.60;;;13.90;47.20;;;;;;215663;1293;25608;-57
2022/01/19 10:55:41;;;;;;;7.60;3.60;;;14.10;47.50;;;;;;215858;1293;22612;-58
2022/01/19 11:00:54;;;;;;;8.10;3.40;;;14.10;47.10;;;;;;215749;1293;24369;-56
2022/01/19 11:06:00;;;;;;;5.60;3.50;;;14.10;47.10;;;;;;215728;1293;23856;-57
2022/01/19 11:11:08;;;;;;;6.80;3.30;;;14.20;47.10;;;;;;215672;1293;22661;-55
2022/01/19 11:16:13;;;;;;;5.90;3.50;;;14.20;47.00;;;;;;215552;1293;25998;-57
2022/01/19 11:21:23;;;;;;;6.20;3.30;;;14.30;47.00;;;;;;215564;1293;22582;-54
2022/01/19 11:26:29;;;;;;;6.20;3.50;;;14.30;47.00;;;;;;215721;1293;24364;-54
2022/01/19 11:31:38;;;;;;;7.70;4.20;;;14.40;46.90;;;;;;215725;1293;25375;-54
2022/01/19 11:36:44;;;;;;;6.10;3.60;;;14.40;47.20;;;;;;215784;1293;22596;-56
2022/01/19 11:41:55;;;;;;;6.20;3.40;;;14.40;46.90;;;;;;215729;1293;24421;-57
2022/01/19 11:47:21;;;;;;;6.70;3.30;;;14.50;46.80;;;;;;216120;1292;22560;-53
2022/01/19 11:52:39;;;;;;;6.00;3.20;;;14.50;46.90;;;;;;216159;1293;24284;-57
2022/01/19 11:57:47;;;;;;;5.80;3.20;;;14.60;46.80;;;;;;215973;1293;22574;-59
2022/01/19 12:02:57;;;;;;;5.90;3.10;;;14.60;46.80;;;;;;216047;1293;22570;-56
2022/01/19 12:08:35;;;;;;;6.50;3.30;;;14.60;46.80;;;;;;215921;1293;22570;-54
2022/01/19 12:19:04;;;;;;;5.50;2.90;;;14.70;46.70;;;;;;215650;1292;25362;-57
2022/01/19 12:24:13;;;;;;;6.30;3.20;;;14.70;47.00;;;;;;215750;1293;22613;-54
2022/01/19 12:29:32;;;;;;;6.50;3.40;;;14.80;46.70;;;;;;215789;1293;22602;-55
2022/01/19 12:34:47;;;;;;;5.70;3.20;;;14.80;46.70;;;;;;215841;1293;24398;-55
2022/01/19 12:39:51;;;;;;;5.00;3.10;;;14.80;46.70;;;;;;215782;1293;25528;-55
2022/01/19 12:44:58;;;;;;;7.00;3.40;;;14.80;46.80;;;;;;215803;1293;23085;-56
2022/01/19 12:50:08;;;;;;;8.10;3.50;;;14.80;47.00;;;;;;215821;1293;22662;-56
2022/01/19 12:55:18;;;;;;;6.70;3.30;;;14.70;47.10;;;;;;215792;1293;24822;-56
2022/01/19 13:00:25;;;;;;;6.10;3.20;;;14.80;47.00;;;;;;215646;1293;22602;-55
2022/01/19 13:05:30;;;;;;;5.20;3.30;;;14.80;47.10;;;;;;215685;1293;25359;-58
2022/01/19 13:10:48;;;;;;;5.30;3.10;;;14.90;46.40;;;;;;215663;1293;23143;-58
2022/01/19 13:16:04;;;;;;;5.70;3.10;;;14.90;46.80;;;;;;215511;1293;22814;-55
2022/01/19 13:21:14;;;;;;;5.90;3.10;;;14.80;47.10;;;;;;215941;1293;24024;-53
2022/01/19 13:26:19;;;;;;;4.60;3.00;;;14.80;47.50;;;;;;215619;1293;22595;-55
2022/01/19 13:31:23;;;;;;;5.60;3.00;;;14.80;47.30;;;;;;215705;1293;22591;-58
2022/01/19 13:36:33;;;;;;;5.00;2.90;;;14.80;47.40;;;;;;215773;1293;22619;-56
2022/01/19 13:41:52;;;;;;;;;;;14.80;47.40;;;;;;215961;1293;24382;-58
2022/01/19 13:47:09;;;;;;;5.40;2.80;;;14.70;47.40;;;;;;215788;1293;22705;-57
2022/01/19 13:52:21;;;;;;;5.60;3.00;;;14.70;47.60;;;;;;215842;1293;22608;-54
2022/01/19 13:57:29;;;;;;;6.10;3.10;;;14.70;47.60;;;;;;215636;1293;22647;-55
2022/01/19 14:02:32;;;;;;;5.00;2.80;;;14.60;47.90;;;;;;215822;1293;25315;-56
2022/01/19 14:08:11;;;;;;;6.30;3.10;;;14.60;47.70;;;;;;215696;1293;24548;-58
2022/01/19 14:13:30;;;;;;;6.20;3.20;;;14.50;47.70;;;;;;215591;1293;24370;-55
2022/01/19 14:18:34;;;;;;;6.90;3.50;;;14.50;47.80;;;;;;215535;1293;22670;-56
2022/01/19 14:23:38;;;;;;;5.00;2.90;;;14.50;48.10;;;;;;215716;1293;22576;-54
2022/01/19 14:28:42;;;;;;;6.10;3.60;;;14.40;47.90;;;;;;215649;1293;22645;-56
2022/01/19 14:34:02;;;;;;;6.20;3.10;;;14.40;48.00;;;;;;215637;1295;26547;-56
2022/01/19 14:39:17;;;;;;;5.30;3.00;;;14.40;48.30;;;;;;215672;1294;25364;-57
2022/01/19 14:44:39;;;;;;;4.90;2.80;;;14.40;48.00;;;;;;215822;1293;24928;-55
2022/01/19 14:49:46;;;;;;;6.50;3.50;;;14.30;48.00;;;;;;215769;1293;22578;-57
2022/01/19 14:54:55;;;;;;;6.00;3.20;;;14.30;48.10;;;;;;215747;1293;22745;-55
2022/01/19 15:00:00;;;;;;;4.20;2.40;;;14.30;48.10;;;;;;215608;1293;26527;-57
2022/01/19 15:05:13;;;;;;;6.40;3.40;;;14.20;48.20;;;;;;215686;1294;25479;-55
2022/01/19 15:10:22;;;;;;;5.40;3.00;;;14.20;48.30;;;;;;215596;1294;22727;-56
2022/01/19 15:15:32;;;;;;;6.00;3.10;;;14.20;48.30;;;;;;215628;1293;22575;-57
2022/01/19 15:20:40;;;;;;;4.80;3.10;;;14.20;48.30;;;;;;215708;1297;22586;-53
2022/01/19 15:25:49;;;;;;;6.00;3.60;;;14.20;48.30;;;;;;215569;1293;24335;-59
2022/01/19 15:31:04;;;;;;;5.80;3.10;;;14.10;48.30;;;;;;215605;1297;25571;-56
2022/01/19 15:36:26;;;;;;;5.60;3.40;;;14.10;48.30;;;;;;215672;1293;22573;-56
2022/01/19 15:41:37;;;;;;;5.60;3.20;;;14.10;48.30;;;;;;215587;1293;24262;-57
2022/01/19 15:46:47;;;;;;;6.10;3.50;;;14.10;48.30;;;;;;215730;1293;25430;-54
2022/01/19 15:51:53;;;;;;;6.40;3.60;;;14.10;48.40;;;;;;215646;1294;24348;-57
2022/01/19 15:57:12;;;;;;;6.60;3.40;;;14.10;48.30;;;;;;215707;1294;25550;-55
2022/01/19 16:03:10;;;;;;;6.80;3.80;;;14.00;48.30;;;;;;215907;1294;22567;-53
2022/01/19 16:08:20;;;;;;;6.90;3.70;;;14.10;48.30;;;;;;215832;1293;22606;-56
2022/01/19 16:13:31;;;;;;;7.40;4.10;;;14.10;48.20;;;;;;215741;1293;22602;-56
2022/01/19 16:18:34;;;;;;;6.40;4.20;;;14.10;48.10;;;;;;215756;1293;22813;-55
2022/01/19 16:29:24;;;;;;;6.20;3.70;;;14.00;48.20;;;;;;215397;1292;22616;-56
2022/01/19 16:34:30;;;;;;;7.40;4.50;;;13.90;48.20;;;;;;215551;1293;22602;-60
2022/01/19 16:39:34;;;;;;;6.30;4.00;;;13.90;48.20;;;;;;215819;1293;22632;-57
2022/01/19 16:44:39;;;;;;;6.10;3.90;;;13.90;48.40;;;;;;215736;1294;23093;-58
2022/01/19 16:49:47;;;;;;;6.40;4.00;;;13.90;48.30;;;;;;215828;1293;24889;-56
2022/01/19 16:54:51;;;;;;;6.60;3.70;;;13.90;48.30;;;;;;215860;1293;25018;-54
2022/01/19 16:59:55;;;;;;;7.00;3.80;;;13.90;48.30;;;;;;216105;1293;24365;-57
2022/01/19 17:05:01;;;;;;;6.50;4.30;;;13.80;48.30;;;;;;215920;1293;22572;-56
2022/01/19 17:10:10;;;;;;;7.40;4.30;;;13.80;48.30;;;;;;215927;1293;22567;-57
2022/01/19 17:15:27;;;;;;;8.60;4.70;;;13.80;48.30;;;;;;215550;1293;24942;-55
2022/01/19 17:20:35;;;;;;;6.40;4.10;;;13.80;48.20;;;;;;215569;1293;24307;-56
2022/01/19 17:25:47;;;;;;;7.70;4.30;;;13.80;48.20;;;;;;215551;1293;25409;-57
2022/01/19 17:30:54;;;;;;;7.40;4.20;;;13.80;48.70;;;;;;215860;1293;24313;-57
2022/01/19 17:36:29;;;;;;;6.90;4.30;;;13.80;48.20;;;;;;215738;1292;22599;-56
2022/01/19 17:41:38;;;;;;;8.80;5.20;;;13.80;48.30;;;;;;216064;1293;22635;-56
2022/01/19 17:46:56;;;;;;;9.60;5.60;;;13.70;48.30;;;;;;215787;1293;25385;-60
2022/01/19 17:52:22;;;;;;;8.60;5.20;;;13.70;48.70;;;;;;216041;1293;25353;-58
2022/01/19 17:57:29;;;;;;;9.70;5.60;;;13.60;48.40;;;;;;215760;1292;308511;-57
2022/01/19 18:02:34;;;;;;;14.10;6.50;;;13.60;48.40;;;;;;215773;1293;22592;-59
2022/01/19 18:07:48;;;;;;;8.80;5.50;;;13.60;48.40;;;;;;215872;1293;24457;-58
2022/01/19 18:13:02;;;;;;;8.90;5.60;;;13.60;48.50;;;;;;215683;1293;24522;-61
2022/01/19 18:18:21;;;;;;;8.50;5.40;;;13.60;48.80;;;;;;215450;1293;23098;-58
2022/01/19 18:23:34;;;;;;;8.10;5.30;;;13.60;48.40;;;;;;215588;1293;24374;-62
2022/01/19 18:28:37;;;;;;;9.90;5.90;;;13.60;48.50;;;;;;215772;1293;22618;-58
2022/01/19 18:33:44;;;;;;;9.40;5.90;;;13.60;48.40;;;;;;215631;1293;22889;-56
2022/01/19 18:38:51;;;;;;;8.30;5.50;;;13.60;48.50;;;;;;215766;1293;24309;-57
2022/01/19 18:43:58;;;;;;;8.60;5.30;;;13.60;48.40;;;;;;215968;1293;25303;-57
2022/01/19 18:49:04;;;;;;;9.60;6.20;;;13.50;48.40;;;;;;215873;1293;22626;-57
2022/01/19 18:54:09;;;;;;;9.50;5.50;;;13.50;48.40;;;;;;215473;1293;26567;-56
2022/01/19 18:59:12;;;;;;;10.40;6.20;;;13.50;48.70;;;;;;215846;1293;22718;-56
2022/01/19 19:04:18;;;;;;;9.60;5.80;;;13.50;48.50;;;;;;215875;1293;24431;-59
2022/01/19 19:09:24;;;;;;;10.40;6.30;;;13.50;48.50;;;;;;215637;1293;22656;-57
2022/01/19 19:14:34;;;;;;;9.60;6.20;;;13.50;48.40;;;;;;215588;1293;25311;-57
2022/01/19 19:19:49;;;;;;;9.30;5.80;;;13.40;48.30;;;;;;215620;1293;24326;-55
2022/01/19 19:24:57;;;;;;;10.40;6.10;;;13.50;48.30;;;;;;215655;1293;26505;-55
2022/01/19 19:30:05;;;;;;;8.70;5.40;;;13.50;48.40;;;;;;215546;1293;24239;-57
2022/01/19 19:35:39;;;;;;;;;;;;;;;;;;;;;
2022/01/19 19:40:45;;;;;;;9.40;6.20;;;13.40;48.40;;;;;;215722;1292;24179;-59
2022/01/19 19:45:54;;;;;;;10.20;6.40;;;13.40;48.30;;;;;;215683;1293;25316;-59
2022/01/19 19:51:06;;;;;;;9.10;5.70;;;13.40;48.50;;;;;;215661;1293;24435;-58
2022/01/19 19:56:10;;;;;;;10.50;6.80;;;13.40;48.50;;;;;;215762;1293;23240;-54
2022/01/19 20:01:19;;;;;;;11.20;6.10;;;13.40;48.40;;;;;;215549;1293;22584;-58
2022/01/19 20:06:36;;;;;;;10.10;6.10;;;13.40;48.50;;;;;;216043;1293;24658;-55
2022/01/19 20:11:56;;;;;;;8.20;5.40;;;13.40;48.30;;;;;;215685;1293;24274;-56
2022/01/19 20:17:09;;;;;;;9.80;6.10;;;13.30;48.30;;;;;;215428;1293;22777;-56
2022/01/19 20:22:17;;;;;;;9.50;5.10;;;13.30;48.30;;;;;;215598;1293;22603;-58
2022/01/19 20:27:24;;;;;;;9.40;5.30;;;13.30;48.40;;;;;;215520;1293;24397;-56
2022/01/19 20:32:35;;;;;;;8.90;5.70;;;13.30;48.30;;;;;;215579;1293;22589;-55
2022/01/19 20:37:41;;;;;;;11.10;5.90;;;13.30;48.30;;;;;;215720;1293;25432;-54
2022/01/19 20:42:54;;;;;;;8.30;5.90;;;13.30;48.00;;;;;;215673;1293;24788;-56
2022/01/19 20:48:10;;;;;;;9.70;5.50;;;13.30;48.30;;;;;;215918;1293;24127;-57
2022/01/19 20:53:21;;;;;;;9.90;6.10;;;13.20;48.60;;;;;;215953;1293;24297;-57
2022/01/19 20:58:44;;;;;;;8.40;5.40;;;13.20;48.50;;;;;;215847;1293;25583;-56
2022/01/19 21:03:58;;;;;;;8.10;5.10;;;13.20;48.70;;;;;;215907;1293;22733;-58
2022/01/19 21:09:11;;;;;;;9.30;5.80;;;13.20;48.30;;;;;;216092;1293;22579;-61
2022/01/19 21:14:35;;;;;;;9.30;5.50;;;13.20;48.40;;;;;;215645;1292;22601;-58
2022/01/19 21:19:40;;;;;;;8.90;5.30;;;13.20;48.30;;;;;;215376;1293;22796;-57
2022/01/19 21:24:44;;;;;;;9.40;5.90;;;13.20;48.40;;;;;;215865;1293;22602;-58
2022/01/19 21:29:55;;;;;;;9.20;5.60;;;13.20;48.40;;;;;;215528;1293;25288;-57
2022/01/19 21:35:17;;;;;;;8.60;5.70;;;13.20;48.40;;;;;;215821;1293;22603;-53
2022/01/19 21:40:27;;;;;;;7.80;4.90;;;13.20;48.80;;;;;;215842;1293;25630;-56
2022/01/19 21:45:34;;;;;;;9.10;5.50;;;13.20;48.00;;;;;;216115;1293;22739;-58
2022/01/19 21:50:44;;;;;;;8.20;5.50;;;13.20;48.70;;;;;;215815;1293;24262;-56
2022/01/19 21:55:51;;;;;;;8.20;5.50;;;13.10;48.40;;;;;;215769;1293;26550;-57
2022/01/19 22:00:56;;;;;;;9.20;5.00;;;13.20;48.40;;;;;;215697;1293;22676;-58
2022/01/19 22:06:05;;;;;;;7.50;5.00;;;13.20;48.80;;;;;;215756;1293;23017;-56
2022/01/19 22:11:12;;;;;;;8.40;4.90;;;13.10;48.40;;;;;;215619;1293;22599;-57
2022/01/19 22:16:33;;;;;;;8.70;4.90;;;13.10;48.30;;;;;;215554;1293;25215;-57
2022/01/19 22:21:44;;;;;;;7.40;5.20;;;13.10;48.30;;;;;;215523;1293;22617;-57
2022/01/19 22:26:48;;;;;;;7.30;5.30;;;13.10;48.40;;;;;;215627;1293;23995;-56
2022/01/19 22:31:59;;;;;;;7.30;4.80;;;13.10;48.70;;;;;;215695;1291;22595;-57
2022/01/19 22:37:03;;;;;;;9.00;5.30;;;13.10;48.30;;;;;;215791;1293;24391;-57
2022/01/19 22:42:07;;;;;;;7.50;5.00;;;13.10;48.30;;;;;;215877;1293;24424;-57
2022/01/19 22:47:11;;;;;;;8.40;5.40;;;13.10;48.30;;;;;;215781;1293;24314;-57
2022/01/19 22:52:19;;;;;;;8.10;5.00;;;13.10;48.30;;;;;;215577;1293;25400;-58
2022/01/19 22:57:22;;;;;;;9.50;5.60;;;13.10;48.40;;;;;;215657;1293;23628;-57
2022/01/19 23:02:26;;;;;;;9.90;5.10;;;13.10;48.40;;;;;;215627;1293;22622;-58
2022/01/19 23:07:30;;;;;;;8.60;4.90;;;13.10;48.30;;;;;;215727;1293;22577;-55
2022/01/19 23:12:36;;;;;;;8.20;5.20;;;13.00;48.60;;;;;;215621;1293;25447;-58
2022/01/19 23:17:40;;;;;;;7.80;4.80;;;13.00;48.30;;;;;;215554;1293;22642;-56
2022/01/19 23:22:44;;;;;;;9.40;4.70;;;13.00;48.30;;;;;;215463;1293;24303;-58
2022/01/19 23:27:47;;;;;;;7.00;4.80;;;13.00;48.40;;;;;;215865;1292;22625;-57
2022/01/19 23:33:04;;;;;;;8.00;4.80;;;13.00;48.40;;;;;;215692;1293;22606;-55
2022/01/19 23:38:22;;;;;;;9.10;5.10;;;13.00;48.30;;;;;;216135;1293;22602;-55
2022/01/19 23:48:48;;;;;;;8.00;4.40;;;13.00;48.30;;;;;;215748;1293;22598;-55
2022/01/19 23:53:51;;;;;;;8.90;5.30;;;13.00;48.20;;;;;;215505;1293;24819;-56
2022/01/19 23:59:00;;;;;;;8.10;4.60;;;13.10;48.30;;;;;;216147;1293;22857;-54
